sensor_id;sensor_type;location;lat;lon;timestamp;temperature;humidity
18191;DHT22;47004;51.366;12.348;2024-03-08T00:00:53;0.80;99.90
18191;DHT22;47004;51.366;12.348;2024-03-08T00:02:55;0.80;99.90
18191;DHT22;47004;51.366;12.348;2024-03-08T00:04:57;0.50;99.90
18191;DHT22;47004;51.366;12.348;2024-03-08T00:06:58;0.40;99.90
18191;DHT22;47004;51.366;12.348;2024-03-08T00:09:00;0.40;99.90
18191;DHT22;47004;51.366;12.348;2024-03-08T00:11:08;0.40;99.90
18191;DHT22;47004;51.366;12.348;2024-03-08T00:13:10;0.40;99.90
18191;DHT22;47004;51.366;12.348;2024-03-08T00:15:13;0.40;99.90
18191;DHT22;47004;51.366;12.348;2024-03-08T00:17:16;0.30;99.90
18191;DHT22;47004;51.366;12.348;2024-03-08T00:19:18;0.30;99.90
18191;DHT22;47004;51.366;12.348;2024-03-08T00:21:20;0.30;99.90
18191;DHT22;47004;51.366;12.348;2024-03-08T00:23:21;0.30;99.90
18191;DHT22;47004;51.366;12.348;2024-03-08T00:25:24;0.30;99.90
18191;DHT22;47004;51.366;12.348;2024-03-08T00:27:28;0.30;99.90
18191;DHT22;47004;51.366;12.348;2024-03-08T00:29:31;0.20;99.90
18191;DHT22;47004;51.366;12.348;2024-03-08T00:31:33;0.20;99.90
18191;DHT22;47004;51.366;12.348;2024-03-08T00:33:37;0.20;99.90
18191;DHT22;47004;51.366;12.348;2024-03-08T00:35:40;0.20;99.90
18191;DHT22;47004;51.366;12.348;2024-03-08T00:37:41;0.10;99.90
18191;DHT22;47004;51.366;12.348;2024-03-08T00:39:43;0.10;99.90
18191;DHT22;47004;51.366;12.348;2024-03-08T00:41:45;0.10;99.90
18191;DHT22;47004;51.366;12.348;2024-03-08T00:43:47;0.10;99.90
18191;DHT22;47004;51.366;12.348;2024-03-08T00:45:49;0.10;99.90
18191;DHT22;47004;51.366;12.348;2024-03-08T00:47:51;0.10;99.90
18191;DHT22;47004;51.366;12.348;2024-03-08T00:49:55;0.10;99.90
18191;DHT22;47004;51.366;12.348;2024-03-08T00:51:58;0.10;99.90
18191;DHT22;47004;51.366;12.348;2024-03-08T00:54:00;0.10;99.90
18191;DHT22;47004;51.366;12.348;2024-03-08T00:56:02;0.10;99.90
18191;DHT22;47004;51.366;12.348;2024-03-08T00:58:05;0.00;99.90
18191;DHT22;47004;51.366;12.348;2024-03-08T01:00:11;0.00;99.90
18191;DHT22;47004;51.366;12.348;2024-03-08T01:02:13;0.00;99.90
18191;DHT22;47004;51.366;12.348;2024-03-08T01:04:14;0.00;99.90
18191;DHT22;47004;51.366;12.348;2024-03-08T01:06:17;0.00;99.90
18191;DHT22;47004;51.366;12.348;2024-03-08T01:08:19;0.00;99.90
18191;DHT22;47004;51.366;12.348;2024-03-08T01:10:21;0.00;99.90
18191;DHT22;47004;51.366;12.348;2024-03-08T01:12:23;-0.10;99.90
18191;DHT22;47004;51.366;12.348;2024-03-08T01:14:25;-0.10;99.90
18191;DHT22;47004;51.366;12.348;2024-03-08T01:16:26;0.00;99.90
18191;DHT22;47004;51.366;12.348;2024-03-08T01:18:29;-0.10;99.90
18191;DHT22;47004;51.366;12.348;2024-03-08T01:20:31;-0.20;99.90
18191;DHT22;47004;51.366;12.348;2024-03-08T01:22:34;-0.20;99.90
18191;DHT22;47004;51.366;12.348;2024-03-08T01:24:36;-0.20;99.90
18191;DHT22;47004;51.366;12.348;2024-03-08T01:26:38;-0.20;99.90
18191;DHT22;47004;51.366;12.348;2024-03-08T01:28:40;-0.20;99.90
18191;DHT22;47004;51.366;12.348;2024-03-08T01:30:42;-0.20;99.90
18191;DHT22;47004;51.366;12.348;2024-03-08T01:32:46;-0.20;99.90
18191;DHT22;47004;51.366;12.348;2024-03-08T01:34:47;-0.30;99.90
18191;DHT22;47004;51.366;12.348;2024-03-08T01:36:49;-0.30;99.90
18191;DHT22;47004;51.366;12.348;2024-03-08T01:38:53;-0.30;99.90
18191;DHT22;47004;51.366;12.348;2024-03-08T01:40:55;-0.20;99.90
18191;DHT22;47004;51.366;12.348;2024-03-08T01:42:57;-0.20;99.90
18191;DHT22;47004;51.366;12.348;2024-03-08T01:44:58;-0.20;99.90
18191;DHT22;47004;51.366;12.348;2024-03-08T01:47:01;-0.20;99.90
18191;DHT22;47004;51.366;12.348;2024-03-08T01:49:03;-0.20;99.90
18191;DHT22;47004;51.366;12.348;2024-03-08T01:51:05;-0.30;99.90
18191;DHT22;47004;51.366;12.348;2024-03-08T01:53:07;-0.30;99.90
18191;DHT22;47004;51.366;12.348;2024-03-08T01:55:12;-0.30;99.90
18191;DHT22;47004;51.366;12.348;2024-03-08T01:57:15;-0.30;99.90
18191;DHT22;47004;51.366;12.348;2024-03-08T01:59:17;-0.30;99.90
18191;DHT22;47004;51.366;12.348;2024-03-08T02:01:20;-0.30;99.90
18191;DHT22;47004;51.366;12.348;2024-03-08T02:03:22;-0.30;99.90
18191;DHT22;47004;51.366;12.348;2024-03-08T02:05:25;-0.20;99.90
18191;DHT22;47004;51.366;12.348;2024-03-08T02:07:27;-0.30;99.90
18191;DHT22;47004;51.366;12.348;2024-03-08T02:09:31;-0.30;99.90
18191;DHT22;47004;51.366;12.348;2024-03-08T02:11:35;-0.40;99.90
18191;DHT22;47004;51.366;12.348;2024-03-08T02:13:36;-0.40;99.90
18191;DHT22;47004;51.366;12.348;2024-03-08T02:15:52;-0.40;99.90
18191;DHT22;47004;51.366;12.348;2024-03-08T02:17:54;-0.30;99.90
18191;DHT22;47004;51.366;12.348;2024-03-08T02:19:56;-0.40;99.90
18191;DHT22;47004;51.366;12.348;2024-03-08T02:22:02;-0.40;99.90
18191;DHT22;47004;51.366;12.348;2024-03-08T02:24:06;-0.30;99.90
18191;DHT22;47004;51.366;12.348;2024-03-08T02:26:08;-0.40;99.90
18191;DHT22;47004;51.366;12.348;2024-03-08T02:28:10;-0.30;99.90
18191;DHT22;47004;51.366;12.348;2024-03-08T02:30:13;-0.40;99.90
18191;DHT22;47004;51.366;12.348;2024-03-08T02:32:16;-0.40;99.90
18191;DHT22;47004;51.366;12.348;2024-03-08T02:34:18;-0.40;99.90
18191;DHT22;47004;51.366;12.348;2024-03-08T02:36:23;-0.30;99.90
18191;DHT22;47004;51.366;12.348;2024-03-08T02:38:26;-0.40;99.90
18191;DHT22;47004;51.366;12.348;2024-03-08T02:40:29;-0.40;99.90
18191;DHT22;47004;51.366;12.348;2024-03-08T02:42:31;-0.50;99.90
18191;DHT22;47004;51.366;12.348;2024-03-08T02:44:33;-0.40;99.90
18191;DHT22;47004;51.366;12.348;2024-03-08T02:46:35;-0.50;99.90
18191;DHT22;47004;51.366;12.348;2024-03-08T02:48:37;-0.50;99.90
18191;DHT22;47004;51.366;12.348;2024-03-08T02:50:38;-0.50;99.90
18191;DHT22;47004;51.366;12.348;2024-03-08T02:52:40;-0.60;99.90
18191;DHT22;47004;51.366;12.348;2024-03-08T02:54:44;-0.60;99.90
18191;DHT22;47004;51.366;12.348;2024-03-08T02:56:47;-0.60;99.90
18191;DHT22;47004;51.366;12.348;2024-03-08T02:58:51;-0.60;99.90
18191;DHT22;47004;51.366;12.348;2024-03-08T03:00:53;-0.70;99.90
18191;DHT22;47004;51.366;12.348;2024-03-08T03:02:58;-0.70;99.90
18191;DHT22;47004;51.366;12.348;2024-03-08T03:05:03;-0.70;99.90
18191;DHT22;47004;51.366;12.348;2024-03-08T03:07:06;-0.70;99.90
18191;DHT22;47004;51.366;12.348;2024-03-08T03:09:08;-0.70;99.90
18191;DHT22;47004;51.366;12.348;2024-03-08T03:11:12;-0.80;99.90
18191;DHT22;47004;51.366;12.348;2024-03-08T03:13:15;-0.80;99.90
18191;DHT22;47004;51.366;12.348;2024-03-08T03:15:17;-0.80;99.90
18191;DHT22;47004;51.366;12.348;2024-03-08T03:17:18;-0.80;99.90
18191;DHT22;47004;51.366;12.348;2024-03-08T03:19:20;-0.60;99.90
18191;DHT22;47004;51.366;12.348;2024-03-08T03:21:22;-0.80;99.90
18191;DHT22;47004;51.366;12.348;2024-03-08T03:23:24;-0.80;99.90
18191;DHT22;47004;51.366;12.348;2024-03-08T03:25:27;-0.80;99.90
18191;DHT22;47004;51.366;12.348;2024-03-08T03:27:36;-0.90;99.90
18191;DHT22;47004;51.366;12.348;2024-03-08T03:29:39;-0.90;99.90
18191;DHT22;47004;51.366;12.348;2024-03-08T03:31:43;-0.90;99.90
18191;DHT22;47004;51.366;12.348;2024-03-08T03:33:46;-0.90;99.90
18191;DHT22;47004;51.366;12.348;2024-03-08T03:35:48;-0.90;99.90
18191;DHT22;47004;51.366;12.348;2024-03-08T03:37:52;-0.90;99.90
18191;DHT22;47004;51.366;12.348;2024-03-08T03:40:07;-1.00;99.90
18191;DHT22;47004;51.366;12.348;2024-03-08T03:42:09;-1.00;99.90
18191;DHT22;47004;51.366;12.348;2024-03-08T03:44:12;-1.00;99.90
18191;DHT22;47004;51.366;12.348;2024-03-08T03:46:14;-1.20;99.90
18191;DHT22;47004;51.366;12.348;2024-03-08T03:48:16;-1.10;99.90
18191;DHT22;47004;51.366;12.348;2024-03-08T03:50:18;-0.50;99.90
18191;DHT22;47004;51.366;12.348;2024-03-08T03:52:20;-1.00;99.90
18191;DHT22;47004;51.366;12.348;2024-03-08T03:54:23;-1.10;99.90
18191;DHT22;47004;51.366;12.348;2024-03-08T03:56:27;-1.10;99.90
18191;DHT22;47004;51.366;12.348;2024-03-08T03:58:29;-1.10;99.90
18191;DHT22;47004;51.366;12.348;2024-03-08T04:00:33;-1.10;99.90
18191;DHT22;47004;51.366;12.348;2024-03-08T04:02:34;-1.10;99.90
18191;DHT22;47004;51.366;12.348;2024-03-08T04:04:35;-1.10;99.90
18191;DHT22;47004;51.366;12.348;2024-03-08T04:06:40;-1.10;99.90
18191;DHT22;47004;51.366;12.348;2024-03-08T04:08:42;-1.10;99.90
18191;DHT22;47004;51.366;12.348;2024-03-08T04:10:45;-1.10;99.90
18191;DHT22;47004;51.366;12.348;2024-03-08T04:12:47;-1.10;99.90
18191;DHT22;47004;51.366;12.348;2024-03-08T04:14:49;-1.10;99.90
18191;DHT22;47004;51.366;12.348;2024-03-08T04:16:52;-1.20;99.90
18191;DHT22;47004;51.366;12.348;2024-03-08T04:18:54;-1.20;99.90
18191;DHT22;47004;51.366;12.348;2024-03-08T04:20:56;-1.20;99.90
18191;DHT22;47004;51.366;12.348;2024-03-08T04:22:58;-0.90;99.90
18191;DHT22;47004;51.366;12.348;2024-03-08T04:24:59;-1.20;99.90
18191;DHT22;47004;51.366;12.348;2024-03-08T04:27:03;-1.20;99.90
18191;DHT22;47004;51.366;12.348;2024-03-08T04:29:05;-1.20;99.90
18191;DHT22;47004;51.366;12.348;2024-03-08T04:31:10;-1.20;99.90
18191;DHT22;47004;51.366;12.348;2024-03-08T04:33:13;-1.20;99.90
18191;DHT22;47004;51.366;12.348;2024-03-08T04:35:17;-1.20;99.90
18191;DHT22;47004;51.366;12.348;2024-03-08T04:37:20;-1.20;99.90
18191;DHT22;47004;51.366;12.348;2024-03-08T04:39:23;-1.20;99.90
18191;DHT22;47004;51.366;12.348;2024-03-08T04:41:30;-1.20;99.90
18191;DHT22;47004;51.366;12.348;2024-03-08T04:43:34;-1.20;99.90
18191;DHT22;47004;51.366;12.348;2024-03-08T04:45:36;-1.20;99.90
18191;DHT22;47004;51.366;12.348;2024-03-08T04:47:40;-1.30;99.90
18191;DHT22;47004;51.366;12.348;2024-03-08T04:49:43;-1.30;99.90
18191;DHT22;47004;51.366;12.348;2024-03-08T04:51:45;-1.30;99.90
18191;DHT22;47004;51.366;12.348;2024-03-08T04:53:49;-1.30;99.90
18191;DHT22;47004;51.366;12.348;2024-03-08T04:55:51;-1.30;99.90
18191;DHT22;47004;51.366;12.348;2024-03-08T04:57:53;-1.30;99.90
18191;DHT22;47004;51.366;12.348;2024-03-08T04:59:54;-1.30;99.90
18191;DHT22;47004;51.366;12.348;2024-03-08T05:01:56;-1.30;99.90
18191;DHT22;47004;51.366;12.348;2024-03-08T05:03:58;-1.30;99.90
18191;DHT22;47004;51.366;12.348;2024-03-08T05:06:04;-1.30;99.90
18191;DHT22;47004;51.366;12.348;2024-03-08T05:08:06;-1.30;99.90
18191;DHT22;47004;51.366;12.348;2024-03-08T05:10:09;-1.40;99.90
18191;DHT22;47004;51.366;12.348;2024-03-08T05:12:11;-1.40;99.90
18191;DHT22;47004;51.366;12.348;2024-03-08T05:14:14;-1.40;99.90
18191;DHT22;47004;51.366;12.348;2024-03-08T05:16:17;-1.40;99.90
18191;DHT22;47004;51.366;12.348;2024-03-08T05:18:19;-1.40;99.90
18191;DHT22;47004;51.366;12.348;2024-03-08T05:20:22;-1.40;99.90
18191;DHT22;47004;51.366;12.348;2024-03-08T05:22:27;-1.40;99.90
18191;DHT22;47004;51.366;12.348;2024-03-08T05:24:29;-1.40;99.90
18191;DHT22;47004;51.366;12.348;2024-03-08T05:26:31;-1.40;99.90
18191;DHT22;47004;51.366;12.348;2024-03-08T05:28:33;-1.20;99.90
18191;DHT22;47004;51.366;12.348;2024-03-08T05:30:35;-1.50;99.90
18191;DHT22;47004;51.366;12.348;2024-03-08T05:32:39;-1.40;99.90
18191;DHT22;47004;51.366;12.348;2024-03-08T05:34:45;-1.50;99.90
18191;DHT22;47004;51.366;12.348;2024-03-08T05:36:47;-1.50;99.90
18191;DHT22;47004;51.366;12.348;2024-03-08T05:38:51;-1.50;99.90
18191;DHT22;47004;51.366;12.348;2024-03-08T05:40:53;-1.50;99.90
18191;DHT22;47004;51.366;12.348;2024-03-08T05:42:55;-1.50;99.90
18191;DHT22;47004;51.366;12.348;2024-03-08T05:44:56;-1.50;99.90
18191;DHT22;47004;51.366;12.348;2024-03-08T05:46:59;-1.50;99.90
18191;DHT22;47004;51.366;12.348;2024-03-08T05:49:01;-1.50;99.90
18191;DHT22;47004;51.366;12.348;2024-03-08T05:51:05;-1.50;99.90
18191;DHT22;47004;51.366;12.348;2024-03-08T05:53:07;-1.50;99.90
18191;DHT22;47004;51.366;12.348;2024-03-08T05:55:11;-1.50;99.90
18191;DHT22;47004;51.366;12.348;2024-03-08T05:57:15;-1.50;99.90
18191;DHT22;47004;51.366;12.348;2024-03-08T05:59:16;-1.50;99.90
18191;DHT22;47004;51.366;12.348;2024-03-08T06:01:19;-1.50;99.90
18191;DHT22;47004;51.366;12.348;2024-03-08T06:03:19;-1.50;99.90
18191;DHT22;47004;51.366;12.348;2024-03-08T06:05:22;-1.50;99.90
18191;DHT22;47004;51.366;12.348;2024-03-08T06:07:25;-1.30;99.90
18191;DHT22;47004;51.366;12.348;2024-03-08T06:09:27;-1.40;99.90
18191;DHT22;47004;51.366;12.348;2024-03-08T06:11:33;-1.40;99.90
18191;DHT22;47004;51.366;12.348;2024-03-08T06:13:37;-1.40;99.90
18191;DHT22;47004;51.366;12.348;2024-03-08T06:15:41;-1.30;99.90
18191;DHT22;47004;51.366;12.348;2024-03-08T06:17:43;-1.40;99.90
18191;DHT22;47004;51.366;12.348;2024-03-08T06:19:45;-1.40;99.90
18191;DHT22;47004;51.366;12.348;2024-03-08T06:21:47;-1.40;99.90
18191;DHT22;47004;51.366;12.348;2024-03-08T06:23:51;-1.30;99.90
18191;DHT22;47004;51.366;12.348;2024-03-08T06:25:55;-1.30;99.90
18191;DHT22;47004;51.366;12.348;2024-03-08T06:27:59;-1.30;99.90
18191;DHT22;47004;51.366;12.348;2024-03-08T06:30:01;-1.30;99.90
18191;DHT22;47004;51.366;12.348;2024-03-08T06:32:03;-1.20;99.90
18191;DHT22;47004;51.366;12.348;2024-03-08T06:34:05;-1.20;99.90
18191;DHT22;47004;51.366;12.348;2024-03-08T06:36:09;-0.80;99.90
18191;DHT22;47004;51.366;12.348;2024-03-08T06:38:12;-1.20;99.90
18191;DHT22;47004;51.366;12.348;2024-03-08T06:40:17;-1.10;99.90
18191;DHT22;47004;51.366;12.348;2024-03-08T06:42:20;-1.10;99.90
18191;DHT22;47004;51.366;12.348;2024-03-08T06:44:23;-1.10;99.90
18191;DHT22;47004;51.366;12.348;2024-03-08T06:46:26;-1.10;99.90
18191;DHT22;47004;51.366;12.348;2024-03-08T06:48:28;-1.10;99.90
18191;DHT22;47004;51.366;12.348;2024-03-08T06:50:33;-0.80;99.90
18191;DHT22;47004;51.366;12.348;2024-03-08T06:52:37;-1.10;99.90
18191;DHT22;47004;51.366;12.348;2024-03-08T06:54:39;-1.10;99.90
18191;DHT22;47004;51.366;12.348;2024-03-08T06:56:41;-1.00;99.90
18191;DHT22;47004;51.366;12.348;2024-03-08T06:58:44;-1.00;99.90
18191;DHT22;47004;51.366;12.348;2024-03-08T07:00:48;-1.00;99.90
18191;DHT22;47004;51.366;12.348;2024-03-08T07:02:54;-0.90;99.90
18191;DHT22;47004;51.366;12.348;2024-03-08T07:04:56;-0.90;99.90
18191;DHT22;47004;51.366;12.348;2024-03-08T07:06:57;-0.90;99.90
18191;DHT22;47004;51.366;12.348;2024-03-08T07:08:59;-0.90;99.90
18191;DHT22;47004;51.366;12.348;2024-03-08T07:11:01;-0.70;99.90
18191;DHT22;47004;51.366;12.348;2024-03-08T07:13:04;-0.80;99.90
18191;DHT22;47004;51.366;12.348;2024-03-08T07:15:08;-0.70;99.90
18191;DHT22;47004;51.366;12.348;2024-03-08T07:17:15;-0.70;99.90
18191;DHT22;47004;51.366;12.348;2024-03-08T07:19:17;-0.70;99.90
18191;DHT22;47004;51.366;12.348;2024-03-08T07:21:20;-0.60;99.90
18191;DHT22;47004;51.366;12.348;2024-03-08T07:23:21;-0.60;99.90
18191;DHT22;47004;51.366;12.348;2024-03-08T07:25:37;-0.60;99.90
18191;DHT22;47004;51.366;12.348;2024-03-08T07:27:40;-0.50;99.90
18191;DHT22;47004;51.366;12.348;2024-03-08T07:29:41;-0.50;99.90
18191;DHT22;47004;51.366;12.348;2024-03-08T07:31:43;-0.40;99.90
18191;DHT22;47004;51.366;12.348;2024-03-08T07:33:53;-0.40;99.90
18191;DHT22;47004;51.366;12.348;2024-03-08T07:35:55;-0.40;99.90
18191;DHT22;47004;51.366;12.348;2024-03-08T07:37:57;-0.30;99.90
18191;DHT22;47004;51.366;12.348;2024-03-08T07:40:00;-0.30;99.90
18191;DHT22;47004;51.366;12.348;2024-03-08T07:42:02;-0.30;99.90
18191;DHT22;47004;51.366;12.348;2024-03-08T07:44:04;-0.20;99.90
18191;DHT22;47004;51.366;12.348;2024-03-08T07:46:06;-0.10;99.90
18191;DHT22;47004;51.366;12.348;2024-03-08T07:48:08;-0.10;99.90
18191;DHT22;47004;51.366;12.348;2024-03-08T07:50:12;0.00;99.90
18191;DHT22;47004;51.366;12.348;2024-03-08T07:52:16;0.00;99.90
18191;DHT22;47004;51.366;12.348;2024-03-08T07:54:18;0.00;99.90
18191;DHT22;47004;51.366;12.348;2024-03-08T07:56:23;0.10;99.90
18191;DHT22;47004;51.366;12.348;2024-03-08T07:58:26;0.20;99.90
18191;DHT22;47004;51.366;12.348;2024-03-08T08:00:29;0.20;99.90
18191;DHT22;47004;51.366;12.348;2024-03-08T08:02:32;0.30;99.90
18191;DHT22;47004;51.366;12.348;2024-03-08T08:04:34;0.30;99.90
18191;DHT22;47004;51.366;12.348;2024-03-08T08:06:38;0.40;99.90
18191;DHT22;47004;51.366;12.348;2024-03-08T08:08:41;0.40;99.90
18191;DHT22;47004;51.366;12.348;2024-03-08T08:10:43;0.50;99.90
18191;DHT22;47004;51.366;12.348;2024-03-08T08:12:45;0.50;99.90
18191;DHT22;47004;51.366;12.348;2024-03-08T08:14:46;0.50;99.90
18191;DHT22;47004;51.366;12.348;2024-03-08T08:16:48;0.60;99.90
18191;DHT22;47004;51.366;12.348;2024-03-08T08:18:53;0.70;99.90
18191;DHT22;47004;51.366;12.348;2024-03-08T08:20:55;0.70;99.90
18191;DHT22;47004;51.366;12.348;2024-03-08T08:22:59;0.80;99.90
18191;DHT22;47004;51.366;12.348;2024-03-08T08:25:00;0.80;99.90
18191;DHT22;47004;51.366;12.348;2024-03-08T08:27:02;0.80;99.90
18191;DHT22;47004;51.366;12.348;2024-03-08T08:29:06;0.90;99.90
18191;DHT22;47004;51.366;12.348;2024-03-08T08:31:07;0.90;99.90
18191;DHT22;47004;51.366;12.348;2024-03-08T08:33:09;0.90;99.90
18191;DHT22;47004;51.366;12.348;2024-03-08T08:35:11;1.00;99.90
18191;DHT22;47004;51.366;12.348;2024-03-08T08:37:14;1.10;99.90
18191;DHT22;47004;51.366;12.348;2024-03-08T08:39:18;1.10;99.90
18191;DHT22;47004;51.366;12.348;2024-03-08T08:41:20;1.10;99.90
18191;DHT22;47004;51.366;12.348;2024-03-08T08:43:22;1.40;99.90
18191;DHT22;47004;51.366;12.348;2024-03-08T08:45:26;1.40;99.90
18191;DHT22;47004;51.366;12.348;2024-03-08T08:47:30;1.40;99.90
18191;DHT22;47004;51.366;12.348;2024-03-08T08:49:32;1.40;99.90
18191;DHT22;47004;51.366;12.348;2024-03-08T08:51:34;1.50;99.90
18191;DHT22;47004;51.366;12.348;2024-03-08T08:53:37;1.60;99.90
18191;DHT22;47004;51.366;12.348;2024-03-08T08:55:41;1.60;99.90
18191;DHT22;47004;51.366;12.348;2024-03-08T08:57:43;1.70;99.90
18191;DHT22;47004;51.366;12.348;2024-03-08T08:59:45;1.70;99.90
18191;DHT22;47004;51.366;12.348;2024-03-08T09:01:47;1.80;99.90
18191;DHT22;47004;51.366;12.348;2024-03-08T09:03:49;1.80;99.90
18191;DHT22;47004;51.366;12.348;2024-03-08T09:05:52;1.90;99.90
18191;DHT22;47004;51.366;12.348;2024-03-08T09:07:54;2.00;99.90
18191;DHT22;47004;51.366;12.348;2024-03-08T09:09:57;2.10;99.90
18191;DHT22;47004;51.366;12.348;2024-03-08T09:12:00;2.10;99.90
18191;DHT22;47004;51.366;12.348;2024-03-08T09:14:03;2.20;99.90
18191;DHT22;47004;51.366;12.348;2024-03-08T09:16:05;2.30;99.90
18191;DHT22;47004;51.366;12.348;2024-03-08T09:18:08;2.40;99.90
18191;DHT22;47004;51.366;12.348;2024-03-08T09:20:10;2.50;99.90
18191;DHT22;47004;51.366;12.348;2024-03-08T09:22:15;2.50;99.90
18191;DHT22;47004;51.366;12.348;2024-03-08T09:24:17;2.60;99.90
18191;DHT22;47004;51.366;12.348;2024-03-08T09:26:19;2.70;99.90
18191;DHT22;47004;51.366;12.348;2024-03-08T09:28:24;2.80;99.90
18191;DHT22;47004;51.366;12.348;2024-03-08T09:30:28;2.80;99.90
18191;DHT22;47004;51.366;12.348;2024-03-08T09:32:30;2.90;99.90
18191;DHT22;47004;51.366;12.348;2024-03-08T09:34:32;3.00;99.90
18191;DHT22;47004;51.366;12.348;2024-03-08T09:36:34;3.10;99.90
18191;DHT22;47004;51.366;12.348;2024-03-08T09:38:35;3.20;99.90
18191;DHT22;47004;51.366;12.348;2024-03-08T09:40:37;3.30;99.90
18191;DHT22;47004;51.366;12.348;2024-03-08T09:42:39;3.30;99.90
18191;DHT22;47004;51.366;12.348;2024-03-08T09:44:45;3.40;99.90
18191;DHT22;47004;51.366;12.348;2024-03-08T09:46:47;3.50;99.90
18191;DHT22;47004;51.366;12.348;2024-03-08T09:48:53;3.50;99.90
18191;DHT22;47004;51.366;12.348;2024-03-08T09:50:55;3.60;99.90
18191;DHT22;47004;51.366;12.348;2024-03-08T09:52:58;3.70;99.90
18191;DHT22;47004;51.366;12.348;2024-03-08T09:55:00;3.80;99.90
18191;DHT22;47004;51.366;12.348;2024-03-08T09:57:04;3.90;99.90
18191;DHT22;47004;51.366;12.348;2024-03-08T09:59:06;4.00;99.90
18191;DHT22;47004;51.366;12.348;2024-03-08T10:01:34;4.00;99.90
18191;DHT22;47004;51.366;12.348;2024-03-08T10:03:36;4.10;99.90
18191;DHT22;47004;51.366;12.348;2024-03-08T10:05:39;4.20;99.90
18191;DHT22;47004;51.366;12.348;2024-03-08T10:07:41;4.30;99.90
18191;DHT22;47004;51.366;12.348;2024-03-08T10:09:43;4.40;99.90
18191;DHT22;47004;51.366;12.348;2024-03-08T10:11:50;4.40;99.90
18191;DHT22;47004;51.366;12.348;2024-03-08T10:13:54;4.60;99.90
18191;DHT22;47004;51.366;12.348;2024-03-08T10:16:00;4.60;99.90
18191;DHT22;47004;51.366;12.348;2024-03-08T10:18:04;4.80;99.90
18191;DHT22;47004;51.366;12.348;2024-03-08T10:20:13;4.90;99.90
18191;DHT22;47004;51.366;12.348;2024-03-08T10:22:16;5.00;99.90
18191;DHT22;47004;51.366;12.348;2024-03-08T10:24:18;5.10;99.90
18191;DHT22;47004;51.366;12.348;2024-03-08T10:26:20;5.20;99.90
18191;DHT22;47004;51.366;12.348;2024-03-08T10:28:22;5.30;99.90
18191;DHT22;47004;51.366;12.348;2024-03-08T10:30:25;5.40;99.90
18191;DHT22;47004;51.366;12.348;2024-03-08T10:32:28;5.50;99.90
18191;DHT22;47004;51.366;12.348;2024-03-08T10:34:32;5.60;99.90
18191;DHT22;47004;51.366;12.348;2024-03-08T10:36:36;5.70;99.90
18191;DHT22;47004;51.366;12.348;2024-03-08T10:38:39;5.90;99.90
18191;DHT22;47004;51.366;12.348;2024-03-08T10:40:42;5.90;99.90
18191;DHT22;47004;51.366;12.348;2024-03-08T10:42:51;6.10;99.90
18191;DHT22;47004;51.366;12.348;2024-03-08T10:45:01;6.20;99.90
18191;DHT22;47004;51.366;12.348;2024-03-08T10:47:15;6.40;99.90
18191;DHT22;47004;51.366;12.348;2024-03-08T10:49:26;6.40;99.90
18191;DHT22;47004;51.366;12.348;2024-03-08T10:51:33;6.50;99.90
18191;DHT22;47004;51.366;12.348;2024-03-08T10:53:36;6.60;99.90
18191;DHT22;47004;51.366;12.348;2024-03-08T10:55:42;6.70;99.90
18191;DHT22;47004;51.366;12.348;2024-03-08T10:57:45;6.90;99.90
18191;DHT22;47004;51.366;12.348;2024-03-08T10:59:48;7.00;99.90
18191;DHT22;47004;51.366;12.348;2024-03-08T11:01:51;7.10;99.90
18191;DHT22;47004;51.366;12.348;2024-03-08T11:03:53;7.20;99.90
18191;DHT22;47004;51.366;12.348;2024-03-08T11:05:58;7.40;99.90
18191;DHT22;47004;51.366;12.348;2024-03-08T11:08:03;7.60;99.90
18191;DHT22;47004;51.366;12.348;2024-03-08T11:10:18;7.60;99.90
18191;DHT22;47004;51.366;12.348;2024-03-08T11:12:24;7.70;99.90
18191;DHT22;47004;51.366;12.348;2024-03-08T11:14:46;7.90;99.90
18191;DHT22;47004;51.366;12.348;2024-03-08T11:16:49;8.10;99.90
18191;DHT22;47004;51.366;12.348;2024-03-08T11:18:53;8.20;99.90
18191;DHT22;47004;51.366;12.348;2024-03-08T11:20:55;8.30;99.90
18191;DHT22;47004;51.366;12.348;2024-03-08T11:23:00;8.40;99.90
18191;DHT22;47004;51.366;12.348;2024-03-08T11:25:09;8.60;99.90
18191;DHT22;47004;51.366;12.348;2024-03-08T11:27:12;8.70;99.90
18191;DHT22;47004;51.366;12.348;2024-03-08T11:29:33;8.90;99.90
18191;DHT22;47004;51.366;12.348;2024-03-08T11:31:37;9.00;99.90
18191;DHT22;47004;51.366;12.348;2024-03-08T11:33:40;9.20;99.90
18191;DHT22;47004;51.366;12.348;2024-03-08T11:35:44;9.30;99.90
18191;DHT22;47004;51.366;12.348;2024-03-08T11:37:46;9.40;99.90
18191;DHT22;47004;51.366;12.348;2024-03-08T11:39:49;9.50;99.90
18191;DHT22;47004;51.366;12.348;2024-03-08T11:41:53;9.70;99.90
18191;DHT22;47004;51.366;12.348;2024-03-08T11:44:03;9.80;99.90
18191;DHT22;47004;51.366;12.348;2024-03-08T11:46:10;10.00;99.90
18191;DHT22;47004;51.366;12.348;2024-03-08T11:48:13;10.20;99.90
18191;DHT22;47004;51.366;12.348;2024-03-08T11:50:16;10.50;99.90
18191;DHT22;47004;51.366;12.348;2024-03-08T11:52:19;10.50;99.90
18191;DHT22;47004;51.366;12.348;2024-03-08T11:54:22;10.70;99.90
18191;DHT22;47004;51.366;12.348;2024-03-08T11:56:23;10.90;99.90
18191;DHT22;47004;51.366;12.348;2024-03-08T11:58:26;11.10;99.90
18191;DHT22;47004;51.366;12.348;2024-03-08T12:00:29;11.30;99.90
18191;DHT22;47004;51.366;12.348;2024-03-08T12:02:35;11.50;99.90
18191;DHT22;47004;51.366;12.348;2024-03-08T12:04:38;11.70;99.90
18191;DHT22;47004;51.366;12.348;2024-03-08T12:06:42;12.00;99.90
18191;DHT22;47004;51.366;12.348;2024-03-08T12:08:46;12.30;99.90
18191;DHT22;47004;51.366;12.348;2024-03-08T12:10:49;12.80;99.90
18191;DHT22;47004;51.366;12.348;2024-03-08T12:12:53;13.60;99.90
18191;DHT22;47004;51.366;12.348;2024-03-08T12:14:56;14.60;87.30
18191;DHT22;47004;51.366;12.348;2024-03-08T12:16:58;15.40;69.20
18191;DHT22;47004;51.366;12.348;2024-03-08T12:19:01;16.20;62.70
18191;DHT22;47004;51.366;12.348;2024-03-08T12:21:05;16.80;55.10
18191;DHT22;47004;51.366;12.348;2024-03-08T12:23:14;17.40;55.60
18191;DHT22;47004;51.366;12.348;2024-03-08T12:25:17;17.70;45.60
18191;DHT22;47004;51.366;12.348;2024-03-08T12:27:19;18.00;45.30
18191;DHT22;47004;51.366;12.348;2024-03-08T12:29:23;18.10;41.50
18191;DHT22;47004;51.366;12.348;2024-03-08T12:31:28;18.10;42.60
18191;DHT22;47004;51.366;12.348;2024-03-08T12:33:29;18.20;42.30
18191;DHT22;47004;51.366;12.348;2024-03-08T12:35:31;18.20;40.90
18191;DHT22;47004;51.366;12.348;2024-03-08T12:37:34;18.40;39.70
18191;DHT22;47004;51.366;12.348;2024-03-08T12:39:36;18.50;39.40
18191;DHT22;47004;51.366;12.348;2024-03-08T12:41:39;18.60;38.90
18191;DHT22;47004;51.366;12.348;2024-03-08T12:43:42;18.60;38.30
18191;DHT22;47004;51.366;12.348;2024-03-08T12:45:49;18.70;37.90
18191;DHT22;47004;51.366;12.348;2024-03-08T12:47:52;18.70;37.70
18191;DHT22;47004;51.366;12.348;2024-03-08T12:49:54;18.70;38.60
18191;DHT22;47004;51.366;12.348;2024-03-08T12:51:56;18.70;38.50